createdAt,value
2022-09-05T00:01:03.461Z,13.20
2022-09-05T00:06:11.182Z,12.97
2022-09-05T00:11:40.386Z,13.08
2022-09-05T00:16:59.813Z,13.12
2022-09-05T00:24:30.780Z,13.09
2022-09-05T00:27:58.900Z,13.01
2022-09-05T00:33:27.361Z,13.00
2022-09-05T00:38:37.279Z,12.87
2022-09-05T00:43:44.542Z,13.00
2022-09-05T00:48:54.459Z,12.99
2022-09-05T00:54:40.576Z,12.92
2022-09-05T01:00:06.049Z,12.90
2022-09-05T01:05:22.486Z,12.94
2022-09-05T01:10:38.228Z,12.89
2022-09-05T01:15:50.520Z,12.83
2022-09-05T01:21:14.099Z,12.93
2022-09-05T01:26:55.348Z,12.78
2022-09-05T01:32:16.532Z,12.76
2022-09-05T01:37:29.675Z,12.81
2022-09-05T01:42:44.060Z,12.77
2022-09-05T01:47:58.985Z,12.88
2022-09-05T01:53:25.828Z,12.87
2022-09-05T01:58:49.133Z,12.82
2022-09-05T02:04:08.385Z,12.68
2022-09-05T02:09:36.404Z,12.80
2022-09-05T02:14:45.827Z,12.78
2022-09-05T02:19:56.455Z,12.79
2022-09-05T02:25:27.750Z,12.93
2022-09-05T02:30:36.196Z,12.77
2022-09-05T02:35:48.436Z,12.82
2022-09-05T02:45:19.010Z,12.74
2022-09-05T02:46:31.624Z,12.68
2022-09-05T02:57:29.696Z,12.61
2022-09-05T02:58:07.639Z,12.54
2022-09-05T03:03:21.408Z,12.52
2022-09-05T03:09:08.055Z,12.52
2022-09-05T03:15:22.850Z,12.45
2022-09-05T03:20:53.152Z,12.36
2022-09-05T03:26:21.237Z,12.31
2022-09-05T03:31:39.555Z,12.13
2022-09-05T03:37:10.141Z,12.35
2022-09-05T03:42:48.262Z,12.30
2022-09-05T03:48:36.745Z,12.24
2022-09-05T03:57:11.773Z,12.25
2022-09-05T03:59:48.409Z,12.26
2022-09-05T04:08:16.625Z,12.09
2022-09-05T04:10:30.365Z,11.99
2022-09-05T04:15:42.430Z,12.27
2022-09-05T04:20:51.621Z,12.40
2022-09-05T04:31:32.144Z,12.34
2022-09-05T04:36:39.565Z,12.35
2022-09-05T04:41:48.255Z,12.56
2022-09-05T04:46:57.267Z,12.67
2022-09-05T04:52:27.277Z,12.63
2022-09-05T04:57:41.376Z,12.30
2022-09-05T05:06:11.540Z,12.34
2022-09-05T05:08:37.843Z,12.58
2022-09-05T05:17:59.775Z,12.74
2022-09-05T05:19:21.666Z,12.89
2022-09-05T05:24:29.499Z,12.97
2022-09-05T05:29:43.271Z,12.96
2022-09-05T05:34:53.083Z,13.20
2022-09-05T05:40:07.412Z,13.33
2022-09-05T05:45:19.257Z,13.72
2022-09-05T05:50:36.628Z,13.95
2022-09-05T05:56:13.087Z,13.87
2022-09-05T06:01:40.824Z,13.92
2022-09-05T06:06:58.141Z,13.95
2022-09-05T06:15:04.805Z,14.23
2022-09-05T06:18:32.010Z,14.75
2022-09-05T06:24:07.975Z,15.45
2022-09-05T06:29:24.818Z,15.70
2022-09-05T06:35:17.397Z,16.07
2022-09-05T06:40:32.211Z,16.20
2022-09-05T06:45:44.000Z,17.05
2022-09-05T06:51:16.051Z,17.22
2022-09-05T06:56:48.156Z,17.08
2022-09-05T07:02:01.269Z,17.32
2022-09-05T07:07:18.012Z,17.66
2022-09-05T07:12:30.207Z,17.73
2022-09-05T07:18:06.483Z,17.73
2022-09-05T07:24:02.298Z,18.79
2022-09-05T07:28:49.282Z,19.78
2022-09-05T07:34:20.713Z,20.28
2022-09-05T07:39:29.383Z,20.24
2022-09-05T07:44:37.991Z,20.42
2022-09-05T07:50:40.174Z,20.62
2022-09-05T07:56:52.456Z,20.76
2022-09-05T08:00:42.210Z,21.85
2022-09-05T08:05:49.715Z,22.48
2022-09-05T08:11:23.810Z,22.47
2022-09-05T08:16:25.616Z,22.14
2022-09-05T08:21:42.067Z,22.38
2022-09-05T08:26:51.381Z,22.28
2022-09-05T08:32:02.915Z,22.31
2022-09-05T08:37:10.695Z,22.14
2022-09-05T08:42:29.400Z,22.90
2022-09-05T08:47:45.645Z,23.68
2022-09-05T08:52:57.863Z,23.61
2022-09-05T08:58:20.769Z,24.78
2022-09-05T09:03:31.484Z,24.39
2022-09-05T09:08:51.761Z,23.86
2022-09-05T09:13:57.700Z,23.81
2022-09-05T09:19:10.421Z,24.27
2022-09-05T09:24:28.043Z,24.62
2022-09-05T09:29:37.646Z,25.58
2022-09-05T09:34:52.930Z,26.18
2022-09-05T09:40:38.729Z,24.99
2022-09-05T09:46:04.989Z,25.93
2022-09-05T09:51:38.072Z,25.85
2022-09-05T09:57:16.980Z,24.95
2022-09-05T10:07:10.643Z,25.38
2022-09-05T10:10:44.276Z,25.45
2022-09-05T10:14:26.168Z,25.67
2022-09-05T10:20:09.876Z,24.80
2022-09-05T10:25:30.019Z,25.51
2022-09-05T10:33:01.050Z,25.57
2022-09-05T10:36:31.300Z,25.08
2022-09-05T10:41:50.025Z,24.87
2022-09-05T10:47:06.358Z,24.89
2022-09-05T10:52:18.636Z,24.03
2022-09-05T10:57:38.208Z,24.01
2022-09-05T11:02:48.152Z,23.99
2022-09-05T11:08:03.157Z,23.65
2022-09-05T11:13:23.927Z,23.55
2022-09-05T11:19:07.985Z,23.88
2022-09-05T11:24:27.395Z,24.01
2022-09-05T11:29:38.832Z,24.62
2022-09-05T11:39:45.717Z,25.78
2022-09-05T11:40:59.184Z,26.35
2022-09-05T11:46:22.980Z,25.82
2022-09-05T11:52:08.528Z,26.75
2022-09-05T11:57:33.143Z,26.81
2022-09-05T12:03:57.198Z,26.68
2022-09-05T12:08:41.994Z,26.87
2022-09-05T12:13:54.946Z,25.95
2022-09-05T12:19:19.265Z,26.03
2022-09-05T12:25:26.560Z,26.02
2022-09-05T12:30:00.916Z,25.91
2022-09-05T12:36:10.696Z,25.46
2022-09-05T12:41:38.351Z,25.79
2022-09-05T12:46:05.728Z,27.09
2022-09-05T12:51:46.992Z,26.98
2022-09-05T13:00:50.918Z,27.11
2022-09-05T13:03:13.477Z,27.10
2022-09-05T13:07:56.236Z,26.65
2022-09-05T13:13:03.966Z,26.53
2022-09-05T13:18:31.283Z,27.06
2022-09-05T13:23:43.663Z,26.99
2022-09-05T13:29:09.898Z,26.70
2022-09-05T13:38:06.614Z,26.94
2022-09-05T13:39:52.411Z,26.87
2022-09-05T13:44:58.927Z,26.42
2022-09-05T13:50:23.691Z,27.00
2022-09-05T13:55:39.164Z,26.26
2022-09-05T14:01:06.530Z,26.44
2022-09-05T14:06:45.740Z,27.01
2022-09-05T14:11:58.680Z,27.08
2022-09-05T14:22:40.846Z,27.02
2022-09-05T14:27:48.944Z,26.52
2022-09-05T14:37:39.309Z,26.45
2022-09-05T14:39:14.398Z,26.71
2022-09-05T14:44:41.661Z,26.48
2022-09-05T14:50:06.179Z,26.50
2022-09-05T15:02:52.077Z,27.56
2022-09-05T15:05:50.508Z,27.31
2022-09-05T15:12:16.777Z,27.33
2022-09-05T15:16:24.790Z,27.32
2022-09-05T15:21:34.670Z,26.62
2022-09-05T15:26:51.930Z,26.77
2022-09-05T15:32:15.431Z,26.86
2022-09-05T15:37:24.695Z,26.46
2022-09-05T15:42:32.807Z,26.20
2022-09-05T15:47:39.537Z,26.03
2022-09-05T15:52:46.831Z,25.96
2022-09-05T15:58:00.350Z,26.11
2022-09-05T16:04:12.849Z,25.75
2022-09-05T16:16:29.900Z,25.19
2022-09-05T16:23:36.595Z,24.69
2022-09-05T16:26:56.646Z,23.94
2022-09-05T16:32:25.060Z,24.32
2022-09-05T16:37:54.947Z,24.22
2022-09-05T16:43:22.477Z,24.50
2022-09-05T16:48:55.245Z,24.00
2022-09-05T16:54:30.999Z,23.32
2022-09-05T16:59:56.880Z,23.61
2022-09-05T17:05:30.958Z,23.34
2022-09-05T17:11:06.194Z,23.07
2022-09-05T17:16:44.693Z,23.09
2022-09-05T17:24:41.680Z,21.97
2022-09-05T17:29:24.830Z,22.28
2022-09-05T17:33:54.608Z,22.28
2022-09-05T17:39:19.702Z,22.26
2022-09-05T17:44:30.095Z,22.05
2022-09-05T17:49:43.292Z,22.03
2022-09-05T17:54:50.125Z,21.77
2022-09-05T17:59:55.646Z,21.51
2022-09-05T18:05:07.356Z,21.39
2022-09-05T18:10:15.097Z,21.17
2022-09-05T18:16:04.953Z,21.01
2022-09-05T18:21:21.757Z,20.91
2022-09-05T18:26:29.202Z,20.90
2022-09-05T18:32:03.575Z,20.53
2022-09-05T18:37:42.354Z,20.82
2022-09-05T18:42:54.722Z,20.81
2022-09-05T18:48:04.208Z,20.84
2022-09-05T18:53:19.517Z,20.79
2022-09-05T18:58:34.517Z,20.64
2022-09-05T19:03:52.299Z,20.33
2022-09-05T19:09:00.884Z,20.42
2022-09-05T19:14:25.613Z,20.32
2022-09-05T19:20:15.549Z,19.75
2022-09-05T19:25:24.911Z,19.89
2022-09-05T19:36:59.233Z,19.50
2022-09-05T19:37:14.271Z,19.42
2022-09-05T19:45:34.399Z,19.76
2022-09-05T19:47:46.864Z,19.37
2022-09-05T19:52:22.718Z,19.26
2022-09-05T19:57:29.535Z,19.35
2022-09-05T20:02:34.247Z,19.55
2022-09-05T20:07:53.671Z,19.49
2022-09-05T20:12:57.971Z,19.48
2022-09-05T20:18:19.898Z,19.39
2022-09-05T20:23:28.522Z,19.44
2022-09-05T20:28:35.856Z,19.08
2022-09-05T20:33:45.840Z,18.92
2022-09-05T20:43:20.288Z,19.20
2022-09-05T20:44:24.989Z,19.29
2022-09-05T20:54:05.523Z,19.34
2022-09-05T20:54:59.096Z,19.05
2022-09-05T21:00:24.664Z,19.00
2022-09-05T21:05:31.216Z,19.02
2022-09-05T21:10:55.771Z,19.17
2022-09-05T21:16:01.283Z,19.09
2022-09-05T21:21:28.392Z,18.55
2022-09-05T21:26:32.513Z,18.57
2022-09-05T21:31:43.768Z,18.33
2022-09-05T21:36:48.584Z,18.28
2022-09-05T21:42:11.551Z,18.18
2022-09-05T21:47:41.435Z,17.80
2022-09-05T21:53:11.892Z,17.86
2022-09-05T21:59:25.144Z,17.77
2022-09-05T22:03:44.642Z,17.87
2022-09-05T22:08:55.032Z,17.59
2022-09-05T22:14:13.917Z,17.54
2022-09-05T22:19:23.127Z,17.53
2022-09-05T22:24:30.758Z,17.32
2022-09-05T22:29:36.098Z,17.12
2022-09-05T22:34:40.308Z,17.17
2022-09-05T22:39:44.832Z,17.06
2022-09-05T22:44:50.278Z,16.98
2022-09-05T22:49:54.490Z,16.88
2022-09-05T22:54:58.650Z,16.50
2022-09-05T23:00:04.814Z,16.56
2022-09-05T23:05:09.332Z,16.53
2022-09-05T23:10:13.162Z,16.49
2022-09-05T23:15:18.973Z,16.37
2022-09-05T23:20:23.136Z,16.22
2022-09-05T23:25:26.975Z,15.92
2022-09-05T23:30:32.052Z,15.91
2022-09-05T23:35:36.015Z,15.83
2022-09-05T23:40:40.193Z,16.02
2022-09-05T23:45:48.259Z,15.86
2022-09-05T23:50:52.888Z,15.84
2022-09-05T23:56:00.556Z,15.65
